sensor_id;sensor_type;location;lat;lon;timestamp;pressure;altitude;pressure_sealevel;temperature;humidity
45939;BME280;31650;48.818;9.116;2023-04-01T00:07:02;96599.25;;;7.44;100.00
45939;BME280;31650;48.818;9.116;2023-04-01T00:22:03;96605.03;;;7.71;100.00
45939;BME280;31650;48.818;9.116;2023-04-01T00:37:03;96600.31;;;7.55;100.00
45939;BME280;31650;48.818;9.116;2023-04-01T00:52:04;96614.22;;;7.70;100.00
45939;BME280;31650;48.818;9.116;2023-04-01T01:37:31;96621.84;;;7.61;100.00
45939;BME280;31650;48.818;9.116;2023-04-01T01:52:32;96627.81;;;7.40;100.00
45939;BME280;31650;48.818;9.116;2023-04-01T02:07:32;96629.75;;;7.21;100.00
45939;BME280;31650;48.818;9.116;2023-04-01T02:22:37;96639.97;;;7.19;100.00
45939;BME280;31650;48.818;9.116;2023-04-01T02:37:39;96634.56;;;7.07;100.00
45939;BME280;31650;48.818;9.116;2023-04-01T02:52:42;96629.47;;;6.99;100.00
45939;BME280;31650;48.818;9.116;2023-04-01T03:07:42;96632.50;;;6.91;100.00
45939;BME280;31650;48.818;9.116;2023-04-01T03:22:42;96632.69;;;7.08;100.00
45939;BME280;31650;48.818;9.116;2023-04-01T03:37:43;96642.59;;;6.83;100.00
45939;BME280;31650;48.818;9.116;2023-04-01T03:52:43;96626.81;;;6.80;100.00
45939;BME280;31650;48.818;9.116;2023-04-01T04:07:43;96608.34;;;6.96;100.00
45939;BME280;31650;48.818;9.116;2023-04-01T04:22:43;96594.03;;;7.19;100.00
45939;BME280;31650;48.818;9.116;2023-04-01T04:37:44;96596.34;;;6.92;100.00
45939;BME280;31650;48.818;9.116;2023-04-01T04:52:44;96593.13;;;6.83;100.00
45939;BME280;31650;48.818;9.116;2023-04-01T05:07:44;96583.59;;;6.69;100.00
45939;BME280;31650;48.818;9.116;2023-04-01T05:22:44;96569.63;;;6.72;100.00
45939;BME280;31650;48.818;9.116;2023-04-01T05:37:44;96558.69;;;7.20;100.00
45939;BME280;31650;48.818;9.116;2023-04-01T05:52:45;96541.66;;;7.43;100.00
45939;BME280;31650;48.818;9.116;2023-04-01T06:07:45;96533.84;;;7.94;100.00
45939;BME280;31650;48.818;9.116;2023-04-01T06:23:31;96533.19;;;8.27;100.00
45939;BME280;31650;48.818;9.116;2023-04-01T06:38:09;96528.53;;;8.51;100.00
45939;BME280;31650;48.818;9.116;2023-04-01T07:08:43;96535.63;;;8.86;100.00
45939;BME280;31650;48.818;9.116;2023-04-01T07:23:44;96537.91;;;8.78;100.00
45939;BME280;31650;48.818;9.116;2023-04-01T07:38:50;96559.25;;;8.74;100.00
45939;BME280;31650;48.818;9.116;2023-04-01T08:08:57;96569.91;;;9.60;100.00
45939;BME280;31650;48.818;9.116;2023-04-01T08:24:00;96569.63;;;9.78;100.00
45939;BME280;31650;48.818;9.116;2023-04-01T08:39:09;96587.59;;;9.12;100.00
45939;BME280;31650;48.818;9.116;2023-04-01T09:24:33;96592.16;;;9.28;100.00
45939;BME280;31650;48.818;9.116;2023-04-01T09:39:36;96596.38;;;9.53;100.00
45939;BME280;31650;48.818;9.116;2023-04-01T11:25:29;96602.50;;;11.09;81.18
45939;BME280;31650;48.818;9.116;2023-04-01T12:56:58;96648.44;;;11.11;79.15
45939;BME280;31650;48.818;9.116;2023-04-01T13:57:27;96690.66;;;11.40;78.53
45939;BME280;31650;48.818;9.116;2023-04-01T14:27:50;96719.47;;;10.31;90.85
45939;BME280;31650;48.818;9.116;2023-04-01T14:58:12;96729.09;;;10.39;91.88
45939;BME280;31650;48.818;9.116;2023-04-01T15:13:15;96731.59;;;10.62;91.19
45939;BME280;31650;48.818;9.116;2023-04-01T15:43:45;96750.56;;;10.57;87.61
45939;BME280;31650;48.818;9.116;2023-04-01T16:13:54;96771.78;;;10.27;83.87
45939;BME280;31650;48.818;9.116;2023-04-01T16:44:20;96799.34;;;9.85;89.06
45939;BME280;31650;48.818;9.116;2023-04-01T16:59:24;96808.78;;;9.82;91.79
45939;BME280;31650;48.818;9.116;2023-04-01T17:14:28;96815.91;;;9.71;94.92
45939;BME280;31650;48.818;9.116;2023-04-01T17:44:59;96852.50;;;9.69;97.13
45939;BME280;31650;48.818;9.116;2023-04-01T18:00:18;96898.38;;;9.06;100.00
45939;BME280;31650;48.818;9.116;2023-04-01T18:30:27;96937.84;;;7.95;100.00
45939;BME280;31650;48.818;9.116;2023-04-01T18:45:33;96951.09;;;7.84;100.00
45939;BME280;31650;48.818;9.116;2023-04-01T19:00:37;96972.06;;;7.52;100.00
45939;BME280;31650;48.818;9.116;2023-04-01T19:15:44;96979.94;;;7.17;100.00
45939;BME280;31650;48.818;9.116;2023-04-01T19:30:51;96976.06;;;7.06;100.00
45939;BME280;31650;48.818;9.116;2023-04-01T20:01:11;96996.06;;;7.23;100.00
45939;BME280;31650;48.818;9.116;2023-04-01T20:16:15;96998.59;;;7.62;100.00
45939;BME280;31650;48.818;9.116;2023-04-01T21:02:09;97034.31;;;7.89;100.00
45939;BME280;31650;48.818;9.116;2023-04-01T22:18:31;97100.66;;;7.23;100.00
45939;BME280;31650;48.818;9.116;2023-04-01T22:33:38;97102.16;;;7.44;100.00
45939;BME280;31650;48.818;9.116;2023-04-01T22:48:42;97104.31;;;7.60;100.00
45939;BME280;31650;48.818;9.116;2023-04-01T23:03:44;97110.81;;;7.53;100.00
45939;BME280;31650;48.818;9.116;2023-04-01T23:18:57;97122.69;;;7.52;100.00
45939;BME280;31650;48.818;9.116;2023-04-01T23:34:00;97136.75;;;7.35;100.00
45939;BME280;31650;48.818;9.116;2023-04-01T23:49:01;97156.16;;;7.25;100.00
